sensor_id;sensor_type;location;lat;lon;timestamp;pressure;altitude;pressure_sealevel;temperature;humidity
10881;BME280;5493;48.884;8.338;2023-02-19T00:01:42;100907.00;;;10.32;100.00
10881;BME280;5493;48.884;8.338;2023-02-19T00:04:11;100905.53;;;10.16;100.00
10881;BME280;5493;48.884;8.338;2023-02-19T00:06:41;100894.53;;;10.18;100.00
10881;BME280;5493;48.884;8.338;2023-02-19T00:09:08;100888.41;;;9.96;100.00
10881;BME280;5493;48.884;8.338;2023-02-19T00:11:36;100905.72;;;10.21;100.00
10881;BME280;5493;48.884;8.338;2023-02-19T00:14:02;100900.75;;;10.18;100.00
10881;BME280;5493;48.884;8.338;2023-02-19T00:16:30;100903.47;;;10.31;100.00
10881;BME280;5493;48.884;8.338;2023-02-19T00:18:58;100902.84;;;10.23;100.00
10881;BME280;5493;48.884;8.338;2023-02-19T00:21:26;100896.81;;;10.21;100.00
10881;BME280;5493;48.884;8.338;2023-02-19T00:23:56;100902.88;;;10.29;100.00
10881;BME280;5493;48.884;8.338;2023-02-19T00:26:23;100897.25;;;10.24;100.00
10881;BME280;5493;48.884;8.338;2023-02-19T00:28:52;100896.66;;;10.35;100.00
10881;BME280;5493;48.884;8.338;2023-02-19T00:31:21;100906.59;;;10.35;100.00
10881;BME280;5493;48.884;8.338;2023-02-19T00:33:50;100904.53;;;10.37;100.00
10881;BME280;5493;48.884;8.338;2023-02-19T00:36:17;100898.91;;;10.32;100.00
10881;BME280;5493;48.884;8.338;2023-02-19T00:38:44;100893.13;;;10.35;100.00
10881;BME280;5493;48.884;8.338;2023-02-19T00:41:13;100893.09;;;10.28;100.00
10881;BME280;5493;48.884;8.338;2023-02-19T00:43:47;100892.31;;;10.34;100.00
10881;BME280;5493;48.884;8.338;2023-02-19T00:46:15;100881.59;;;10.07;100.00
10881;BME280;5493;48.884;8.338;2023-02-19T00:48:41;100888.97;;;10.26;100.00
10881;BME280;5493;48.884;8.338;2023-02-19T00:51:08;100882.75;;;10.32;100.00
10881;BME280;5493;48.884;8.338;2023-02-19T00:53:35;100883.56;;;10.19;100.00
10881;BME280;5493;48.884;8.338;2023-02-19T00:56:01;100874.66;;;10.25;100.00
10881;BME280;5493;48.884;8.338;2023-02-19T00:58:29;100874.47;;;10.27;100.00
10881;BME280;5493;48.884;8.338;2023-02-19T01:00:56;100870.91;;;10.20;100.00
10881;BME280;5493;48.884;8.338;2023-02-19T01:03:23;100872.81;;;10.32;100.00
10881;BME280;5493;48.884;8.338;2023-02-19T01:05:50;100878.00;;;10.34;100.00
10881;BME280;5493;48.884;8.338;2023-02-19T01:08:17;100879.22;;;10.25;100.00
10881;BME280;5493;48.884;8.338;2023-02-19T01:10:45;100879.03;;;10.40;100.00
10881;BME280;5493;48.884;8.338;2023-02-19T01:13:11;100884.00;;;10.29;100.00
10881;BME280;5493;48.884;8.338;2023-02-19T01:15:39;100889.66;;;10.48;100.00
10881;BME280;5493;48.884;8.338;2023-02-19T01:18:06;100891.50;;;10.47;100.00
10881;BME280;5493;48.884;8.338;2023-02-19T01:20:32;100880.88;;;10.26;100.00
10881;BME280;5493;48.884;8.338;2023-02-19T01:22:59;100894.19;;;10.34;100.00
10881;BME280;5493;48.884;8.338;2023-02-19T01:25:25;100889.53;;;10.15;100.00
10881;BME280;5493;48.884;8.338;2023-02-19T01:27:51;100890.66;;;10.33;100.00
10881;BME280;5493;48.884;8.338;2023-02-19T01:30:18;100885.28;;;10.40;100.00
10881;BME280;5493;48.884;8.338;2023-02-19T01:32:46;100884.25;;;10.41;100.00
10881;BME280;5493;48.884;8.338;2023-02-19T01:35:12;100885.66;;;10.30;100.00
10881;BME280;5493;48.884;8.338;2023-02-19T01:37:39;100878.44;;;10.38;100.00
10881;BME280;5493;48.884;8.338;2023-02-19T01:40:06;100880.47;;;10.35;100.00
10881;BME280;5493;48.884;8.338;2023-02-19T01:42:32;100887.13;;;10.40;100.00
10881;BME280;5493;48.884;8.338;2023-02-19T01:45:25;100890.66;;;10.33;100.00
10881;BME280;5493;48.884;8.338;2023-02-19T01:48:06;100900.19;;;10.36;100.00
10881;BME280;5493;48.884;8.338;2023-02-19T01:50:37;100894.53;;;10.24;100.00
10881;BME280;5493;48.884;8.338;2023-02-19T01:53:07;100906.53;;;10.15;100.00
10881;BME280;5493;48.884;8.338;2023-02-19T01:55:35;100893.31;;;10.27;100.00
10881;BME280;5493;48.884;8.338;2023-02-19T01:58:02;100875.38;;;10.06;100.00
10881;BME280;5493;48.884;8.338;2023-02-19T02:00:29;100872.63;;;9.93;100.00
10881;BME280;5493;48.884;8.338;2023-02-19T02:02:58;100872.69;;;10.06;100.00
10881;BME280;5493;48.884;8.338;2023-02-19T02:05:39;100869.78;;;10.01;100.00
10881;BME280;5493;48.884;8.338;2023-02-19T02:08:08;100861.94;;;10.13;100.00
10881;BME280;5493;48.884;8.338;2023-02-19T02:10:53;100857.75;;;10.04;100.00
10881;BME280;5493;48.884;8.338;2023-02-19T02:13:20;100867.69;;;10.03;100.00
10881;BME280;5493;48.884;8.338;2023-02-19T02:15:51;100854.69;;;10.13;100.00
10881;BME280;5493;48.884;8.338;2023-02-19T02:18:27;100852.34;;;9.97;100.00
10881;BME280;5493;48.884;8.338;2023-02-19T02:21:11;100848.72;;;10.18;100.00
10881;BME280;5493;48.884;8.338;2023-02-19T02:23:50;100853.38;;;9.96;100.00
10881;BME280;5493;48.884;8.338;2023-02-19T02:26:37;100844.00;;;9.79;100.00
10881;BME280;5493;48.884;8.338;2023-02-19T02:29:31;100855.03;;;9.91;100.00
10881;BME280;5493;48.884;8.338;2023-02-19T02:32:03;100868.06;;;9.87;100.00
10881;BME280;5493;48.884;8.338;2023-02-19T02:34:34;100849.66;;;9.91;100.00
10881;BME280;5493;48.884;8.338;2023-02-19T02:37:06;100853.16;;;9.91;100.00
10881;BME280;5493;48.884;8.338;2023-02-19T02:39:35;100858.38;;;10.06;100.00
10881;BME280;5493;48.884;8.338;2023-02-19T02:42:03;100854.44;;;10.02;100.00
10881;BME280;5493;48.884;8.338;2023-02-19T02:44:46;100847.16;;;9.96;100.00
10881;BME280;5493;48.884;8.338;2023-02-19T02:47:28;100844.91;;;10.06;100.00
10881;BME280;5493;48.884;8.338;2023-02-19T02:50:06;100837.44;;;10.01;100.00
10881;BME280;5493;48.884;8.338;2023-02-19T02:52:36;100837.53;;;10.21;100.00
10881;BME280;5493;48.884;8.338;2023-02-19T02:55:22;100832.31;;;10.13;100.00
10881;BME280;5493;48.884;8.338;2023-02-19T02:57:50;100837.13;;;10.24;100.00
10881;BME280;5493;48.884;8.338;2023-02-19T03:00:17;100840.63;;;10.18;100.00
10881;BME280;5493;48.884;8.338;2023-02-19T03:02:45;100828.47;;;10.48;100.00
10881;BME280;5493;48.884;8.338;2023-02-19T03:05:14;100823.69;;;10.30;100.00
10881;BME280;5493;48.884;8.338;2023-02-19T03:08:04;100823.47;;;10.38;100.00
10881;BME280;5493;48.884;8.338;2023-02-19T03:10:38;100819.91;;;10.31;100.00
10881;BME280;5493;48.884;8.338;2023-02-19T03:13:09;100819.31;;;10.29;100.00
10881;BME280;5493;48.884;8.338;2023-02-19T03:16:03;100815.59;;;10.30;100.00
10881;BME280;5493;48.884;8.338;2023-02-19T03:18:53;100817.03;;;10.40;100.00
10881;BME280;5493;48.884;8.338;2023-02-19T03:21:39;100814.16;;;10.41;100.00
10881;BME280;5493;48.884;8.338;2023-02-19T03:24:08;100816.22;;;10.46;100.00
10881;BME280;5493;48.884;8.338;2023-02-19T03:26:54;100815.59;;;10.50;100.00
10881;BME280;5493;48.884;8.338;2023-02-19T03:29:23;100817.28;;;10.45;100.00
10881;BME280;5493;48.884;8.338;2023-02-19T03:31:53;100818.91;;;10.46;100.00
10881;BME280;5493;48.884;8.338;2023-02-19T03:34:24;100819.31;;;10.49;100.00
10881;BME280;5493;48.884;8.338;2023-02-19T03:36:56;100826.63;;;10.55;100.00
10881;BME280;5493;48.884;8.338;2023-02-19T03:39:26;100827.25;;;10.70;100.00
10881;BME280;5493;48.884;8.338;2023-02-19T03:41:58;100820.78;;;10.45;100.00
10881;BME280;5493;48.884;8.338;2023-02-19T03:44:36;100831.16;;;10.55;100.00
10881;BME280;5493;48.884;8.338;2023-02-19T03:47:14;100832.41;;;10.59;100.00
10881;BME280;5493;48.884;8.338;2023-02-19T03:49:47;100833.03;;;10.41;100.00
10881;BME280;5493;48.884;8.338;2023-02-19T03:52:17;100825.97;;;10.40;100.00
10881;BME280;5493;48.884;8.338;2023-02-19T03:54:49;100836.56;;;10.61;100.00
10881;BME280;5493;48.884;8.338;2023-02-19T03:57:23;100839.88;;;10.57;100.00
10881;BME280;5493;48.884;8.338;2023-02-19T03:59:53;100851.91;;;10.54;100.00
10881;BME280;5493;48.884;8.338;2023-02-19T04:02:27;100858.97;;;10.55;100.00
10881;BME280;5493;48.884;8.338;2023-02-19T04:04:59;100853.34;;;10.50;100.00
10881;BME280;5493;48.884;8.338;2023-02-19T04:07:31;100829.69;;;10.39;100.00
10881;BME280;5493;48.884;8.338;2023-02-19T04:10:01;100866.22;;;10.68;100.00
10881;BME280;5493;48.884;8.338;2023-02-19T04:12:28;100865.56;;;10.40;100.00
10881;BME280;5493;48.884;8.338;2023-02-19T04:14:58;100870.78;;;10.48;100.00
10881;BME280;5493;48.884;8.338;2023-02-19T04:17:30;100872.38;;;10.35;100.00
10881;BME280;5493;48.884;8.338;2023-02-19T04:20:02;100880.50;;;10.42;100.00
10881;BME280;5493;48.884;8.338;2023-02-19T04:22:32;100882.81;;;10.45;100.00
10881;BME280;5493;48.884;8.338;2023-02-19T04:24:59;100881.72;;;10.33;100.00
10881;BME280;5493;48.884;8.338;2023-02-19T04:27:26;100885.03;;;10.35;100.00
10881;BME280;5493;48.884;8.338;2023-02-19T04:29:52;100886.88;;;10.28;100.00
10881;BME280;5493;48.884;8.338;2023-02-19T04:32:19;100894.19;;;10.47;100.00
10881;BME280;5493;48.884;8.338;2023-02-19T04:34:46;100898.09;;;10.31;100.00
10881;BME280;5493;48.884;8.338;2023-02-19T04:37:14;100894.13;;;10.27;100.00
10881;BME280;5493;48.884;8.338;2023-02-19T04:39:41;100899.31;;;10.22;100.00
10881;BME280;5493;48.884;8.338;2023-02-19T04:42:09;100909.38;;;10.07;100.00
10881;BME280;5493;48.884;8.338;2023-02-19T04:44:35;100918.78;;;10.18;100.00
10881;BME280;5493;48.884;8.338;2023-02-19T04:47:02;100926.53;;;10.00;100.00
10881;BME280;5493;48.884;8.338;2023-02-19T04:49:29;100925.69;;;9.99;100.00
10881;BME280;5493;48.884;8.338;2023-02-19T04:51:55;100932.34;;;9.97;100.00
10881;BME280;5493;48.884;8.338;2023-02-19T04:54:23;100933.63;;;10.07;100.00
10881;BME280;5493;48.884;8.338;2023-02-19T04:56:50;100933.47;;;9.81;100.00
10881;BME280;5493;48.884;8.338;2023-02-19T04:59:16;100931.84;;;9.80;100.00
10881;BME280;5493;48.884;8.338;2023-02-19T05:01:43;100933.91;;;9.84;100.00
10881;BME280;5493;48.884;8.338;2023-02-19T05:04:09;100932.94;;;9.99;100.00
10881;BME280;5493;48.884;8.338;2023-02-19T05:06:36;100946.97;;;9.87;100.00
10881;BME280;5493;48.884;8.338;2023-02-19T05:09:02;100945.69;;;9.77;100.00
10881;BME280;5493;48.884;8.338;2023-02-19T05:11:30;100940.03;;;9.65;100.00
10881;BME280;5493;48.884;8.338;2023-02-19T05:13:57;100941.84;;;9.58;100.00
10881;BME280;5493;48.884;8.338;2023-02-19T05:16:24;100938.41;;;9.71;100.00
10881;BME280;5493;48.884;8.338;2023-02-19T05:18:51;100937.41;;;9.78;100.00
10881;BME280;5493;48.884;8.338;2023-02-19T05:21:17;100924.91;;;9.64;100.00
10881;BME280;5493;48.884;8.338;2023-02-19T05:23:44;100915.72;;;9.86;100.00
10881;BME280;5493;48.884;8.338;2023-02-19T05:26:12;100925.59;;;9.73;100.00
10881;BME280;5493;48.884;8.338;2023-02-19T05:28:42;100930.31;;;9.71;100.00
10881;BME280;5493;48.884;8.338;2023-02-19T05:31:10;100920.63;;;9.76;100.00
10881;BME280;5493;48.884;8.338;2023-02-19T05:33:36;100935.72;;;9.71;100.00
10881;BME280;5493;48.884;8.338;2023-02-19T05:36:05;100937.88;;;9.88;100.00
10881;BME280;5493;48.884;8.338;2023-02-19T05:38:32;100942.69;;;9.93;100.00
10881;BME280;5493;48.884;8.338;2023-02-19T05:41:06;100930.69;;;10.02;100.00
10881;BME280;5493;48.884;8.338;2023-02-19T05:43:33;100929.94;;;9.80;100.00
10881;BME280;5493;48.884;8.338;2023-02-19T05:46:01;100932.72;;;9.87;100.00
10881;BME280;5493;48.884;8.338;2023-02-19T05:48:27;100930.31;;;9.71;100.00
10881;BME280;5493;48.884;8.338;2023-02-19T05:50:59;100917.41;;;9.94;100.00
10881;BME280;5493;48.884;8.338;2023-02-19T05:53:26;100934.03;;;10.04;100.00
10881;BME280;5493;48.884;8.338;2023-02-19T05:55:52;100939.19;;;10.06;100.00
10881;BME280;5493;48.884;8.338;2023-02-19T05:58:18;100925.25;;;9.89;100.00
10881;BME280;5493;48.884;8.338;2023-02-19T06:00:45;100936.06;;;10.02;100.00
10881;BME280;5493;48.884;8.338;2023-02-19T06:03:13;100934.94;;;10.18;100.00
10881;BME280;5493;48.884;8.338;2023-02-19T06:05:39;100926.88;;;9.83;100.00
10881;BME280;5493;48.884;8.338;2023-02-19T06:08:06;100934.19;;;9.96;100.00
10881;BME280;5493;48.884;8.338;2023-02-19T06:10:32;100943.25;;;9.88;100.00
10881;BME280;5493;48.884;8.338;2023-02-19T06:13:00;100952.84;;;9.98;100.00
10881;BME280;5493;48.884;8.338;2023-02-19T06:15:28;100944.28;;;10.15;100.00
10881;BME280;5493;48.884;8.338;2023-02-19T06:17:55;100947.94;;;10.08;100.00
10881;BME280;5493;48.884;8.338;2023-02-19T06:20:23;100959.09;;;9.98;100.00
10881;BME280;5493;48.884;8.338;2023-02-19T06:22:49;100961.34;;;9.95;100.00
10881;BME280;5493;48.884;8.338;2023-02-19T06:25:16;100963.19;;;9.94;100.00
10881;BME280;5493;48.884;8.338;2023-02-19T06:27:42;100959.03;;;9.92;100.00
10881;BME280;5493;48.884;8.338;2023-02-19T06:30:10;100967.38;;;10.03;100.00
10881;BME280;5493;48.884;8.338;2023-02-19T06:32:37;100964.94;;;10.08;100.00
10881;BME280;5493;48.884;8.338;2023-02-19T06:35:04;100963.34;;;9.86;100.00
10881;BME280;5493;48.884;8.338;2023-02-19T06:37:32;100968.81;;;9.99;100.00
10881;BME280;5493;48.884;8.338;2023-02-19T06:39:59;100965.94;;;10.01;100.00
10881;BME280;5493;48.884;8.338;2023-02-19T06:42:25;100967.50;;;9.88;100.00
10881;BME280;5493;48.884;8.338;2023-02-19T06:44:52;100967.63;;;10.08;100.00
10881;BME280;5493;48.884;8.338;2023-02-19T06:47:18;100985.44;;;10.09;100.00
10881;BME280;5493;48.884;8.338;2023-02-19T06:49:45;100977.94;;;9.98;100.00
10881;BME280;5493;48.884;8.338;2023-02-19T06:52:11;100979.31;;;9.87;100.00
10881;BME280;5493;48.884;8.338;2023-02-19T06:54:39;100986.78;;;10.20;100.00
10881;BME280;5493;48.884;8.338;2023-02-19T06:57:06;100977.47;;;10.22;100.00
10881;BME280;5493;48.884;8.338;2023-02-19T06:59:32;100990.09;;;10.22;100.00
10881;BME280;5493;48.884;8.338;2023-02-19T07:01:59;100989.81;;;10.10;100.00
10881;BME280;5493;48.884;8.338;2023-02-19T07:04:25;100974.75;;;10.16;100.00
10881;BME280;5493;48.884;8.338;2023-02-19T07:06:52;100994.56;;;10.08;100.00
10881;BME280;5493;48.884;8.338;2023-02-19T07:09:18;100995.84;;;10.12;100.00
10881;BME280;5493;48.884;8.338;2023-02-19T07:11:46;101000.16;;;10.07;100.00
10881;BME280;5493;48.884;8.338;2023-02-19T07:14:14;100996.34;;;10.29;100.00
10881;BME280;5493;48.884;8.338;2023-02-19T07:16:41;101005.88;;;10.25;100.00
10881;BME280;5493;48.884;8.338;2023-02-19T07:19:09;101008.25;;;10.48;100.00
10881;BME280;5493;48.884;8.338;2023-02-19T07:21:36;101020.66;;;10.35;100.00
10881;BME280;5493;48.884;8.338;2023-02-19T07:24:03;101022.19;;;10.51;100.00
10881;BME280;5493;48.884;8.338;2023-02-19T07:26:30;101028.13;;;10.40;100.00
10881;BME280;5493;48.884;8.338;2023-02-19T07:28:58;101022.69;;;10.27;100.00
10881;BME280;5493;48.884;8.338;2023-02-19T07:31:26;101035.94;;;10.28;100.00
10881;BME280;5493;48.884;8.338;2023-02-19T07:33:53;101061.50;;;10.39;100.00
10881;BME280;5493;48.884;8.338;2023-02-19T07:36:21;101062.28;;;10.26;100.00
10881;BME280;5493;48.884;8.338;2023-02-19T07:38:52;101068.22;;;10.15;100.00
10881;BME280;5493;48.884;8.338;2023-02-19T07:41:19;101060.22;;;10.01;100.00
10881;BME280;5493;48.884;8.338;2023-02-19T07:43:46;101061.34;;;10.13;100.00
10881;BME280;5493;48.884;8.338;2023-02-19T07:46:14;101068.66;;;10.19;100.00
10881;BME280;5493;48.884;8.338;2023-02-19T07:48:41;101068.84;;;10.17;100.00
10881;BME280;5493;48.884;8.338;2023-02-19T07:51:10;101066.91;;;10.11;100.00
10881;BME280;5493;48.884;8.338;2023-02-19T07:53:37;101069.09;;;10.22;100.00
10881;BME280;5493;48.884;8.338;2023-02-19T07:56:05;101076.81;;;10.32;100.00
10881;BME280;5493;48.884;8.338;2023-02-19T07:58:32;101072.38;;;10.18;100.00
10881;BME280;5493;48.884;8.338;2023-02-19T08:01:06;101080.28;;;10.19;100.00
10881;BME280;5493;48.884;8.338;2023-02-19T08:03:34;101079.03;;;9.94;100.00
10881;BME280;5493;48.884;8.338;2023-02-19T08:06:00;101075.19;;;10.10;100.00
10881;BME280;5493;48.884;8.338;2023-02-19T08:08:27;101079.13;;;10.07;100.00
10881;BME280;5493;48.884;8.338;2023-02-19T08:10:54;101070.16;;;10.28;100.00
10881;BME280;5493;48.884;8.338;2023-02-19T08:13:38;101077.06;;;10.37;100.00
10881;BME280;5493;48.884;8.338;2023-02-19T08:16:10;101077.47;;;10.34;100.00
10881;BME280;5493;48.884;8.338;2023-02-19T08:18:38;101077.81;;;10.24;100.00
10881;BME280;5493;48.884;8.338;2023-02-19T08:21:05;101077.38;;;10.21;100.00
10881;BME280;5493;48.884;8.338;2023-02-19T08:23:31;101089.59;;;10.51;100.00
10881;BME280;5493;48.884;8.338;2023-02-19T08:25:59;101081.50;;;10.51;100.00
10881;BME280;5493;48.884;8.338;2023-02-19T08:28:26;101097.66;;;10.51;100.00
10881;BME280;5493;48.884;8.338;2023-02-19T08:30:52;101097.53;;;10.66;100.00
10881;BME280;5493;48.884;8.338;2023-02-19T08:33:20;101093.00;;;10.66;100.00
10881;BME280;5493;48.884;8.338;2023-02-19T08:35:47;101090.84;;;10.55;100.00
10881;BME280;5493;48.884;8.338;2023-02-19T08:38:14;101095.69;;;10.66;100.00
10881;BME280;5493;48.884;8.338;2023-02-19T08:40:42;101087.63;;;10.73;100.00
10881;BME280;5493;48.884;8.338;2023-02-19T08:43:10;101086.53;;;10.67;100.00
10881;BME280;5493;48.884;8.338;2023-02-19T08:45:37;101094.28;;;10.77;100.00
10881;BME280;5493;48.884;8.338;2023-02-19T08:48:05;101088.91;;;10.90;100.00
10881;BME280;5493;48.884;8.338;2023-02-19T08:50:32;101096.53;;;10.67;100.00
10881;BME280;5493;48.884;8.338;2023-02-19T08:53:00;101094.38;;;10.56;100.00
10881;BME280;5493;48.884;8.338;2023-02-19T08:55:27;101098.19;;;10.74;100.00
10881;BME280;5493;48.884;8.338;2023-02-19T08:57:54;101088.47;;;10.80;100.00
10881;BME280;5493;48.884;8.338;2023-02-19T09:00:21;101095.34;;;10.89;100.00
10881;BME280;5493;48.884;8.338;2023-02-19T09:02:47;101098.59;;;10.71;100.00
10881;BME280;5493;48.884;8.338;2023-02-19T09:05:14;101100.66;;;10.69;100.00
10881;BME280;5493;48.884;8.338;2023-02-19T09:07:42;101099.59;;;10.64;100.00
10881;BME280;5493;48.884;8.338;2023-02-19T09:10:12;101103.38;;;10.69;100.00
10881;BME280;5493;48.884;8.338;2023-02-19T09:12:39;101108.19;;;10.80;100.00
10881;BME280;5493;48.884;8.338;2023-02-19T09:15:07;101105.94;;;10.91;100.00
10881;BME280;5493;48.884;8.338;2023-02-19T09:17:34;101102.84;;;11.00;100.00
10881;BME280;5493;48.884;8.338;2023-02-19T09:20:01;101107.47;;;11.06;100.00
10881;BME280;5493;48.884;8.338;2023-02-19T09:22:27;101105.94;;;10.91;100.00
10881;BME280;5493;48.884;8.338;2023-02-19T09:24:54;101111.47;;;11.23;100.00
10881;BME280;5493;48.884;8.338;2023-02-19T09:27:22;101107.34;;;11.34;100.00
10881;BME280;5493;48.884;8.338;2023-02-19T09:29:48;101104.13;;;11.04;100.00
10881;BME280;5493;48.884;8.338;2023-02-19T09:32:15;101104.59;;;11.21;100.00
10881;BME280;5493;48.884;8.338;2023-02-19T09:34:41;101119.97;;;11.20;100.00
10881;BME280;5493;48.884;8.338;2023-02-19T09:37:08;101116.63;;;11.18;100.00
10881;BME280;5493;48.884;8.338;2023-02-19T09:39:34;101125.63;;;11.32;100.00
10881;BME280;5493;48.884;8.338;2023-02-19T09:42:07;101128.25;;;11.19;100.00
10881;BME280;5493;48.884;8.338;2023-02-19T09:44:41;101141.63;;;11.47;100.00
10881;BME280;5493;48.884;8.338;2023-02-19T09:47:15;101139.31;;;11.30;100.00
10881;BME280;5493;48.884;8.338;2023-02-19T09:49:44;101145.31;;;11.32;100.00
10881;BME280;5493;48.884;8.338;2023-02-19T09:52:18;101145.88;;;11.15;100.00
10881;BME280;5493;48.884;8.338;2023-02-19T09:54:49;101162.63;;;11.51;100.00
10881;BME280;5493;48.884;8.338;2023-02-19T09:57:17;101156.13;;;11.32;100.00
10881;BME280;5493;48.884;8.338;2023-02-19T09:59:49;101160.97;;;11.50;100.00
10881;BME280;5493;48.884;8.338;2023-02-19T10:02:18;101170.13;;;11.56;100.00
10881;BME280;5493;48.884;8.338;2023-02-19T10:04:46;101164.06;;;11.47;100.00
10881;BME280;5493;48.884;8.338;2023-02-19T10:07:14;101165.53;;;11.50;100.00
10881;BME280;5493;48.884;8.338;2023-02-19T10:09:44;101163.69;;;11.50;100.00
10881;BME280;5493;48.884;8.338;2023-02-19T10:12:14;101128.56;;;11.57;100.00
10881;BME280;5493;48.884;8.338;2023-02-19T10:14:44;101157.81;;;11.47;100.00
10881;BME280;5493;48.884;8.338;2023-02-19T10:17:20;101146.16;;;11.40;100.00
10881;BME280;5493;48.884;8.338;2023-02-19T10:19:47;101145.13;;;11.34;100.00
10881;BME280;5493;48.884;8.338;2023-02-19T10:22:14;101147.25;;;11.58;100.00
10881;BME280;5493;48.884;8.338;2023-02-19T10:24:42;101158.47;;;11.68;100.00
10881;BME280;5493;48.884;8.338;2023-02-19T10:27:11;101160.09;;;11.36;100.00
10881;BME280;5493;48.884;8.338;2023-02-19T10:29:38;101171.78;;;11.57;100.00
10881;BME280;5493;48.884;8.338;2023-02-19T10:32:14;101157.00;;;11.46;100.00
10881;BME280;5493;48.884;8.338;2023-02-19T10:34:42;101166.16;;;11.52;100.00
10881;BME280;5493;48.884;8.338;2023-02-19T10:37:13;101165.97;;;11.53;100.00
10881;BME280;5493;48.884;8.338;2023-02-19T10:39:42;101165.97;;;11.66;100.00
10881;BME280;5493;48.884;8.338;2023-02-19T10:42:14;101165.13;;;11.59;100.00
10881;BME280;5493;48.884;8.338;2023-02-19T10:44:43;101168.94;;;11.84;100.00
10881;BME280;5493;48.884;8.338;2023-02-19T10:47:16;101164.78;;;11.75;100.00
10881;BME280;5493;48.884;8.338;2023-02-19T10:49:44;101165.00;;;11.80;100.00
10881;BME280;5493;48.884;8.338;2023-02-19T10:52:14;101164.56;;;11.77;100.00
10881;BME280;5493;48.884;8.338;2023-02-19T10:54:43;101168.88;;;11.58;100.00
10881;BME280;5493;48.884;8.338;2023-02-19T10:57:22;101167.69;;;11.80;100.00
10881;BME280;5493;48.884;8.338;2023-02-19T10:59:55;101171.22;;;11.74;100.00
10881;BME280;5493;48.884;8.338;2023-02-19T11:02:25;101173.13;;;11.94;100.00
10881;BME280;5493;48.884;8.338;2023-02-19T11:05:04;101178.94;;;12.04;100.00
10881;BME280;5493;48.884;8.338;2023-02-19T11:07:31;101171.66;;;11.98;100.00
10881;BME280;5493;48.884;8.338;2023-02-19T11:09:58;101150.47;;;12.08;100.00
10881;BME280;5493;48.884;8.338;2023-02-19T11:12:27;101164.00;;;12.08;100.00
10881;BME280;5493;48.884;8.338;2023-02-19T11:14:54;101171.03;;;12.42;100.00
10881;BME280;5493;48.884;8.338;2023-02-19T11:17:24;101167.69;;;12.26;100.00
10881;BME280;5493;48.884;8.338;2023-02-19T11:19:52;101162.50;;;12.31;100.00
10881;BME280;5493;48.884;8.338;2023-02-19T11:22:29;101158.56;;;12.41;100.00
10881;BME280;5493;48.884;8.338;2023-02-19T11:25:00;101161.25;;;12.41;100.00
10881;BME280;5493;48.884;8.338;2023-02-19T11:27:28;101157.72;;;12.47;100.00
10881;BME280;5493;48.884;8.338;2023-02-19T11:29:55;101164.53;;;12.56;100.00
10881;BME280;5493;48.884;8.338;2023-02-19T11:32:28;101135.19;;;12.72;100.00
10881;BME280;5493;48.884;8.338;2023-02-19T11:35:15;101138.72;;;12.66;100.00
10881;BME280;5493;48.884;8.338;2023-02-19T11:37:53;101144.78;;;12.49;100.00
10881;BME280;5493;48.884;8.338;2023-02-19T11:40:23;101143.31;;;12.66;100.00
10881;BME280;5493;48.884;8.338;2023-02-19T11:42:58;101149.66;;;12.98;100.00
10881;BME280;5493;48.884;8.338;2023-02-19T11:45:36;101146.44;;;12.69;100.00
10881;BME280;5493;48.884;8.338;2023-02-19T11:48:16;101151.78;;;12.82;100.00
10881;BME280;5493;48.884;8.338;2023-02-19T11:50:53;101148.31;;;12.69;100.00
10881;BME280;5493;48.884;8.338;2023-02-19T11:53:26;101157.41;;;12.88;100.00
10881;BME280;5493;48.884;8.338;2023-02-19T11:56:07;101167.72;;;13.17;100.00
10881;BME280;5493;48.884;8.338;2023-02-19T11:58:52;101162.44;;;12.84;100.00
10881;BME280;5493;48.884;8.338;2023-02-19T12:01:28;101162.47;;;12.64;100.00
10881;BME280;5493;48.884;8.338;2023-02-19T12:07:14;101165.72;;;12.93;100.00
10881;BME280;5493;48.884;8.338;2023-02-19T12:09:51;101158.00;;;12.96;100.00
10881;BME280;5493;48.884;8.338;2023-02-19T12:12:48;101154.31;;;12.84;100.00
10881;BME280;5493;48.884;8.338;2023-02-19T12:15:50;101158.47;;;12.80;100.00
10881;BME280;5493;48.884;8.338;2023-02-19T12:18:42;101160.25;;;12.99;100.00
10881;BME280;5493;48.884;8.338;2023-02-19T12:21:22;101162.66;;;12.63;100.00
10881;BME280;5493;48.884;8.338;2023-02-19T12:24:06;101169.03;;;12.88;100.00
10881;BME280;5493;48.884;8.338;2023-02-19T12:26:42;101180.69;;;12.95;100.00
10881;BME280;5493;48.884;8.338;2023-02-19T12:29:23;101166.91;;;13.16;100.00
10881;BME280;5493;48.884;8.338;2023-02-19T12:32:11;101166.00;;;12.65;100.00
10881;BME280;5493;48.884;8.338;2023-02-19T12:37:37;101149.44;;;12.99;100.00
10881;BME280;5493;48.884;8.338;2023-02-19T12:40:31;101136.41;;;12.83;100.00
10881;BME280;5493;48.884;8.338;2023-02-19T12:43:10;101126.00;;;12.80;100.00
10881;BME280;5493;48.884;8.338;2023-02-19T12:45:41;101137.41;;;12.89;100.00
10881;BME280;5493;48.884;8.338;2023-02-19T12:48:15;101143.53;;;13.22;100.00
10881;BME280;5493;48.884;8.338;2023-02-19T12:50:46;101152.56;;;13.09;100.00
10881;BME280;5493;48.884;8.338;2023-02-19T12:53:23;101139.41;;;13.19;100.00
10881;BME280;5493;48.884;8.338;2023-02-19T12:55:55;101162.81;;;13.39;100.00
10881;BME280;5493;48.884;8.338;2023-02-19T12:58:27;101140.88;;;13.02;100.00
10881;BME280;5493;48.884;8.338;2023-02-19T13:00:56;101135.06;;;13.05;100.00
10881;BME280;5493;48.884;8.338;2023-02-19T13:03:28;101134.94;;;13.31;100.00
10881;BME280;5493;48.884;8.338;2023-02-19T13:06:02;101143.59;;;13.15;100.00
10881;BME280;5493;48.884;8.338;2023-02-19T13:08:36;101150.84;;;13.21;100.00
10881;BME280;5493;48.884;8.338;2023-02-19T13:11:09;101149.44;;;13.50;100.00
10881;BME280;5493;48.884;8.338;2023-02-19T13:13:42;101139.22;;;13.08;100.00
10881;BME280;5493;48.884;8.338;2023-02-19T13:16:14;101141.03;;;13.20;100.00